createdAt,value
2018-12-06T00:00:16.324Z,9.67
2018-12-06T00:02:43.920Z,10.50
2018-12-06T00:05:11.485Z,10.63
2018-12-06T00:07:42.929Z,10.77
2018-12-06T00:10:10.349Z,10.50
2018-12-06T00:12:38.145Z,11.47
2018-12-06T00:15:21.576Z,10.97
2018-12-06T00:17:49.339Z,10.77
2018-12-06T00:20:16.905Z,10.03
2018-12-06T00:22:44.360Z,10.63
2018-12-06T00:25:12.016Z,10.97
2018-12-06T00:27:39.472Z,10.63
2018-12-06T00:30:18.889Z,10.90
2018-12-06T00:32:46.377Z,11.73
2018-12-06T00:35:13.828Z,11.30
2018-12-06T00:37:41.291Z,12.43
2018-12-06T00:40:08.868Z,11.67
2018-12-06T00:42:36.408Z,11.37
2018-12-06T00:45:04.401Z,10.47
2018-12-06T00:47:31.820Z,10.07
2018-12-06T00:49:59.393Z,10.53
2018-12-06T00:52:26.844Z,10.87
2018-12-06T00:54:55.082Z,10.53
2018-12-06T00:57:22.756Z,10.43
2018-12-06T00:59:50.236Z,11.77
2018-12-06T01:02:17.692Z,11.63
2018-12-06T01:04:45.156Z,10.73
2018-12-06T01:07:12.713Z,10.70
2018-12-06T01:09:40.269Z,11.23
2018-12-06T01:12:08.010Z,10.10
2018-12-06T01:14:41.068Z,10.57
2018-12-06T01:17:09.417Z,10.10
2018-12-06T01:19:36.958Z,9.80
2018-12-06T01:22:04.727Z,10.60
2018-12-06T01:24:32.294Z,9.83
2018-12-06T01:26:59.742Z,10.27
2018-12-06T01:29:27.301Z,9.80
2018-12-06T01:31:54.725Z,10.33
2018-12-06T01:34:22.365Z,10.33
2018-12-06T01:36:49.873Z,9.93
2018-12-06T01:39:17.352Z,10.37
2018-12-06T01:41:44.885Z,10.20
2018-12-06T01:44:12.453Z,10.50
2018-12-06T01:46:40.131Z,10.50
2018-12-06T01:49:07.625Z,9.83
2018-12-06T01:51:35.124Z,10.27
2018-12-06T01:54:02.844Z,10.50
2018-12-06T01:56:30.261Z,10.03
2018-12-06T01:58:57.680Z,10.80
2018-12-06T02:01:25.269Z,10.20
2018-12-06T02:03:52.724Z,11.53
2018-12-06T02:06:20.148Z,10.50
2018-12-06T02:08:47.580Z,10.50
2018-12-06T02:11:15.093Z,9.90
2018-12-06T02:13:42.545Z,10.07
2018-12-06T02:16:10.408Z,10.43
2018-12-06T02:18:37.866Z,10.00
2018-12-06T02:21:05.328Z,9.93
2018-12-06T02:23:32.801Z,9.57
2018-12-06T02:26:00.238Z,10.47
2018-12-06T02:28:27.697Z,9.13
2018-12-06T02:30:55.157Z,8.73
2018-12-06T02:33:22.618Z,9.80
2018-12-06T02:35:50.036Z,8.57
2018-12-06T02:38:17.630Z,8.83
2018-12-06T02:40:45.086Z,8.87
2018-12-06T02:43:12.517Z,7.80
2018-12-06T02:45:40.102Z,7.93
2018-12-06T02:48:07.555Z,7.47
2018-12-06T02:50:35.092Z,7.80
2018-12-06T02:53:02.574Z,8.20
2018-12-06T02:55:30.135Z,7.70
2018-12-06T02:57:57.625Z,7.67
2018-12-06T03:00:25.099Z,8.13
2018-12-06T03:02:52.589Z,8.70
2018-12-06T03:05:20.062Z,9.00
2018-12-06T03:07:47.620Z,8.10
2018-12-06T03:10:15.116Z,8.73
2018-12-06T03:12:42.665Z,8.03
2018-12-06T03:15:10.197Z,8.83
2018-12-06T03:17:37.941Z,8.53
2018-12-06T03:20:07.348Z,8.67
2018-12-06T03:22:34.821Z,8.27
2018-12-06T03:25:02.342Z,8.00
2018-12-06T03:27:29.839Z,8.57
2018-12-06T03:29:57.408Z,8.00
2018-12-06T03:32:24.834Z,8.77
2018-12-06T03:34:52.546Z,8.33
2018-12-06T03:37:20.074Z,8.43
2018-12-06T03:39:47.492Z,8.27
2018-12-06T03:42:15.193Z,8.43
2018-12-06T03:44:42.738Z,8.77
2018-12-06T03:47:10.134Z,8.20
2018-12-06T03:49:37.634Z,8.03
2018-12-06T03:52:05.213Z,8.27
2018-12-06T03:54:32.784Z,9.73
2018-12-06T03:57:00.344Z,8.67
2018-12-06T03:59:27.773Z,8.43
2018-12-06T04:01:55.337Z,9.13
2018-12-06T04:04:22.819Z,8.80
2018-12-06T04:06:50.321Z,7.77
2018-12-06T04:09:17.997Z,7.83
2018-12-06T04:11:45.597Z,7.80
2018-12-06T04:14:13.087Z,7.70
2018-12-06T04:16:40.816Z,7.63
2018-12-06T04:19:08.274Z,7.90
2018-12-06T04:21:35.833Z,7.57
2018-12-06T04:24:03.274Z,7.23
2018-12-06T04:26:30.690Z,7.63
2018-12-06T04:28:58.280Z,6.77
2018-12-06T04:31:25.766Z,6.40
2018-12-06T04:33:53.325Z,6.73
2018-12-06T04:36:20.770Z,6.83
2018-12-06T04:38:48.237Z,6.70
2018-12-06T04:41:15.764Z,7.80
2018-12-06T04:43:43.254Z,7.00
2018-12-06T04:46:10.793Z,7.87
2018-12-06T04:48:38.277Z,7.90
2018-12-06T04:51:06.650Z,7.97
2018-12-06T04:53:34.076Z,8.50
2018-12-06T04:56:01.496Z,7.73
2018-12-06T04:58:28.961Z,7.67
2018-12-06T05:00:56.490Z,7.57
2018-12-06T05:03:23.905Z,8.37
2018-12-06T05:05:51.422Z,8.40
2018-12-06T05:08:19.251Z,7.50
2018-12-06T05:10:46.719Z,7.97
2018-12-06T05:13:14.264Z,8.80
2018-12-06T05:15:41.736Z,8.27
2018-12-06T05:18:09.232Z,8.93
2018-12-06T05:20:37.052Z,8.23
2018-12-06T05:23:04.603Z,7.87
2018-12-06T05:25:32.068Z,9.10
2018-12-06T05:27:59.634Z,8.27
2018-12-06T05:30:27.336Z,7.97
2018-12-06T05:32:54.852Z,8.10
2018-12-06T05:35:22.411Z,7.13
2018-12-06T05:37:49.969Z,6.80
2018-12-06T05:40:17.525Z,6.63
2018-12-06T05:42:45.005Z,6.40
2018-12-06T05:45:12.647Z,6.60
2018-12-06T05:47:40.208Z,6.17
2018-12-06T05:50:07.761Z,6.33
2018-12-06T05:52:35.221Z,5.77
2018-12-06T05:55:02.782Z,5.53
2018-12-06T05:57:30.415Z,5.63
2018-12-06T05:59:57.838Z,5.70
2018-12-06T06:02:25.333Z,5.40
2018-12-06T06:04:52.828Z,5.57
2018-12-06T06:07:20.372Z,5.67
2018-12-06T06:09:47.816Z,5.30
2018-12-06T06:12:15.236Z,6.00
2018-12-06T06:14:42.745Z,5.40
2018-12-06T06:17:10.292Z,5.80
2018-12-06T06:19:37.784Z,5.27
2018-12-06T06:22:05.251Z,5.67
2018-12-06T06:24:32.744Z,5.10
2018-12-06T06:27:00.213Z,5.60
2018-12-06T06:29:27.641Z,5.50
2018-12-06T06:31:55.144Z,6.33
2018-12-06T06:34:22.614Z,4.97
2018-12-06T06:36:50.042Z,5.50
2018-12-06T06:39:17.462Z,5.27
2018-12-06T06:41:45.075Z,5.07
2018-12-06T06:44:12.526Z,5.07
2018-12-06T06:46:39.992Z,4.90
2018-12-06T06:49:13.821Z,4.63
2018-12-06T06:51:36.815Z,5.00
2018-12-06T06:54:04.306Z,4.90
2018-12-06T06:56:31.775Z,5.43
2018-12-06T06:58:59.193Z,4.43
2018-12-06T07:01:26.696Z,4.57
2018-12-06T07:03:54.112Z,4.50
2018-12-06T07:06:21.589Z,4.67
2018-12-06T07:08:49.045Z,4.47
2018-12-06T07:11:16.505Z,5.93
2018-12-06T07:13:44.152Z,5.17
2018-12-06T07:16:11.541Z,4.80
2018-12-06T07:18:38.954Z,4.70
2018-12-06T07:21:06.742Z,4.40
2018-12-06T07:23:34.667Z,4.50
2018-12-06T07:26:02.217Z,4.30
2018-12-06T07:28:29.730Z,4.57
2018-12-06T07:30:57.183Z,4.53
2018-12-06T07:33:24.618Z,4.33
2018-12-06T07:35:52.206Z,4.80
2018-12-06T07:38:19.760Z,4.33
2018-12-06T07:40:47.212Z,4.73
2018-12-06T07:43:14.633Z,4.37
2018-12-06T07:45:42.092Z,4.37
2018-12-06T07:48:09.587Z,4.10
2018-12-06T07:50:37.245Z,4.10
2018-12-06T07:53:04.701Z,3.97
2018-12-06T07:55:32.166Z,4.10
2018-12-06T07:57:59.952Z,4.60
2018-12-06T08:00:27.440Z,3.83
2018-12-06T08:02:54.860Z,4.10
2018-12-06T08:05:22.300Z,4.37
2018-12-06T08:07:49.749Z,4.17
2018-12-06T08:10:17.303Z,3.97
2018-12-06T08:12:44.769Z,4.83
2018-12-06T08:15:12.328Z,5.50
2018-12-06T08:17:39.830Z,4.37
2018-12-06T08:20:07.644Z,4.10
2018-12-06T08:22:35.067Z,4.73
2018-12-06T08:25:02.775Z,4.50
2018-12-06T08:27:30.229Z,4.27
2018-12-06T08:29:57.994Z,4.03
2018-12-06T08:32:25.554Z,4.10
2018-12-06T08:34:53.109Z,4.30
2018-12-06T08:37:20.537Z,4.27
2018-12-06T08:39:47.979Z,3.73
2018-12-06T08:42:15.484Z,3.97
2018-12-06T08:44:42.937Z,4.10
2018-12-06T08:47:10.612Z,4.00
2018-12-06T08:49:38.091Z,4.67
2018-12-06T08:52:05.516Z,5.00
2018-12-06T08:54:33.077Z,4.40
2018-12-06T08:57:00.528Z,3.87
2018-12-06T08:59:27.977Z,3.67
2018-12-06T09:01:55.408Z,4.00
2018-12-06T09:04:22.834Z,4.93
2018-12-06T09:06:50.346Z,4.20
2018-12-06T09:09:17.825Z,5.20
2018-12-06T09:11:45.358Z,4.83
2018-12-06T09:14:12.829Z,4.60
2018-12-06T09:16:40.250Z,4.67
2018-12-06T09:19:07.751Z,4.47
2018-12-06T09:21:35.309Z,4.77
2018-12-06T09:24:02.765Z,4.07
2018-12-06T09:26:30.240Z,3.60
2018-12-06T09:28:57.677Z,3.63
2018-12-06T09:31:25.238Z,3.27
2018-12-06T09:34:02.444Z,3.80
2018-12-06T09:36:29.949Z,4.23
2018-12-06T09:38:57.465Z,3.90
2018-12-06T09:41:24.897Z,4.47
2018-12-06T09:43:52.453Z,3.63
2018-12-06T09:46:20.098Z,3.40
2018-12-06T09:48:47.509Z,3.60
2018-12-06T09:51:15.025Z,3.20
2018-12-06T09:53:43.351Z,3.00
2018-12-06T09:56:10.865Z,2.80
2018-12-06T09:58:38.322Z,2.30
2018-12-06T10:01:05.742Z,2.90
2018-12-06T10:03:33.338Z,2.77
2018-12-06T10:06:00.837Z,2.80
2018-12-06T10:08:28.348Z,2.57
2018-12-06T10:10:55.813Z,3.03
2018-12-06T10:13:23.265Z,2.60
2018-12-06T10:15:50.808Z,2.13
2018-12-06T10:18:18.229Z,3.23
2018-12-06T10:20:45.840Z,2.53
2018-12-06T10:23:13.385Z,2.93
2018-12-06T10:25:40.873Z,3.20
2018-12-06T10:28:08.507Z,3.70
2018-12-06T10:30:36.076Z,2.57
2018-12-06T10:33:03.499Z,2.80
2018-12-06T10:35:31.099Z,2.93
2018-12-06T10:37:58.605Z,2.67
2018-12-06T10:40:26.114Z,2.00
2018-12-06T10:42:53.668Z,2.30
2018-12-06T10:45:21.224Z,1.97
2018-12-06T10:47:49.092Z,2.17
2018-12-06T10:50:16.648Z,2.30
2018-12-06T10:52:44.065Z,2.73
2018-12-06T10:55:11.632Z,2.63
2018-12-06T10:57:39.336Z,2.67
2018-12-06T11:00:09.171Z,2.57
2018-12-06T11:02:43.085Z,3.20
2018-12-06T11:05:10.613Z,2.90
2018-12-06T11:07:38.069Z,2.67
2018-12-06T11:10:06.820Z,2.10
2018-12-06T11:12:34.318Z,2.47
2018-12-06T11:15:01.768Z,2.30
2018-12-06T11:17:59.846Z,2.20
2018-12-06T11:20:27.300Z,2.40
2018-12-06T11:22:54.717Z,2.80
2018-12-06T11:25:22.128Z,3.00
2018-12-06T11:27:49.580Z,2.70
2018-12-06T11:30:17.329Z,2.70
2018-12-06T11:32:44.818Z,2.73
2018-12-06T11:35:12.321Z,2.97
2018-12-06T11:37:39.878Z,3.17
2018-12-06T11:40:08.029Z,3.07
2018-12-06T11:42:35.615Z,3.30
2018-12-06T11:45:04.229Z,3.23
2018-12-06T11:47:31.652Z,3.30
2018-12-06T11:49:59.119Z,3.60
2018-12-06T11:52:26.665Z,3.40
2018-12-06T11:54:54.085Z,3.33
2018-12-06T11:57:22.204Z,3.90
2018-12-06T11:59:49.657Z,2.50
2018-12-06T12:02:17.524Z,1.77
2018-12-06T12:04:45.084Z,1.80
2018-12-06T12:07:12.638Z,2.10
2018-12-06T12:09:40.058Z,2.47
2018-12-06T12:12:07.553Z,1.47
2018-12-06T12:14:35.321Z,1.33
2018-12-06T12:17:02.873Z,1.77
2018-12-06T12:19:30.336Z,1.83
2018-12-06T12:21:57.768Z,1.50
2018-12-06T12:24:25.234Z,1.77
2018-12-06T12:26:52.637Z,1.53
2018-12-06T12:29:20.165Z,1.60
2018-12-06T12:31:47.588Z,1.40
2018-12-06T12:34:15.008Z,1.60
2018-12-06T12:36:42.532Z,1.80
2018-12-06T12:39:10.006Z,1.40
2018-12-06T12:41:37.448Z,1.60
2018-12-06T12:44:05.483Z,1.63
2018-12-06T12:46:33.061Z,1.90
2018-12-06T12:49:00.628Z,2.20
2018-12-06T12:51:28.256Z,2.20
2018-12-06T12:53:55.754Z,1.50
2018-12-06T12:56:23.179Z,1.53
2018-12-06T12:58:50.669Z,1.40
2018-12-06T13:01:18.159Z,1.50
2018-12-06T13:03:45.786Z,1.77
2018-12-06T13:06:13.221Z,1.60
2018-12-06T13:08:40.701Z,1.50
2018-12-06T13:11:08.156Z,0.60
2018-12-06T13:13:35.599Z,0.77
2018-12-06T13:16:03.172Z,0.70
2018-12-06T13:18:30.639Z,0.50
2018-12-06T13:20:58.241Z,0.63
2018-12-06T13:23:25.964Z,0.80
2018-12-06T13:25:53.376Z,0.70
2018-12-06T13:28:20.868Z,0.60
2018-12-06T13:30:48.292Z,0.60
2018-12-06T13:33:15.782Z,0.77
2018-12-06T13:35:43.234Z,0.60
2018-12-06T13:38:10.693Z,0.87
2018-12-06T13:40:38.121Z,1.40
2018-12-06T13:43:05.613Z,2.00
2018-12-06T13:45:33.164Z,0.73
2018-12-06T13:48:00.627Z,0.80
2018-12-06T13:50:28.185Z,0.77
2018-12-06T13:52:55.696Z,1.43
2018-12-06T13:55:23.185Z,1.20
2018-12-06T13:57:50.661Z,1.20
2018-12-06T14:00:18.081Z,1.90
2018-12-06T14:02:45.569Z,1.17
2018-12-06T14:05:13.028Z,1.30
2018-12-06T14:07:40.449Z,1.30
2018-12-06T14:10:07.957Z,1.57
2018-12-06T14:12:35.377Z,1.43
2018-12-06T14:15:02.977Z,1.60
2018-12-06T14:17:30.419Z,1.20
2018-12-06T14:19:57.979Z,1.67
2018-12-06T14:22:25.416Z,2.33
2018-12-06T14:24:52.889Z,2.67
2018-12-06T14:27:20.321Z,3.00
2018-12-06T14:29:47.749Z,2.10
2018-12-06T14:32:15.261Z,1.63
2018-12-06T14:34:42.821Z,1.87
2018-12-06T14:37:10.246Z,1.70
2018-12-06T14:39:37.832Z,1.67
2018-12-06T14:42:05.256Z,1.60
2018-12-06T14:44:32.758Z,1.03
2018-12-06T14:47:00.297Z,1.50
2018-12-06T14:49:27.765Z,1.30
2018-12-06T14:51:55.222Z,1.50
2018-12-06T14:54:22.722Z,1.40
2018-12-06T14:56:50.136Z,1.20
2018-12-06T14:59:17.605Z,1.10
2018-12-06T15:01:45.056Z,1.43
2018-12-06T15:04:12.604Z,1.20
2018-12-06T15:06:40.065Z,1.30
2018-12-06T15:09:07.932Z,1.50
2018-12-06T15:11:35.478Z,1.07
2018-12-06T15:14:02.945Z,1.30
2018-12-06T15:16:30.396Z,1.13
2018-12-06T15:18:57.821Z,0.93
2018-12-06T15:21:25.237Z,1.40
2018-12-06T15:23:52.779Z,4.17
2018-12-06T15:26:20.272Z,7.20
2018-12-06T15:28:47.776Z,5.80
2018-12-06T15:31:15.249Z,3.07
2018-12-06T15:33:42.909Z,2.10
2018-12-06T15:36:10.341Z,1.70
2018-12-06T15:38:37.771Z,1.53
2018-12-06T15:41:05.388Z,1.87
2018-12-06T15:43:32.944Z,2.33
2018-12-06T15:46:00.445Z,1.60
2018-12-06T15:48:27.960Z,2.50
2018-12-06T15:50:55.454Z,2.50
2018-12-06T15:53:22.937Z,2.63
2018-12-06T15:55:50.353Z,2.30
2018-12-06T15:58:17.886Z,1.70
2018-12-06T16:00:45.350Z,7.07
2018-12-06T16:03:12.801Z,5.90
2018-12-06T16:05:40.266Z,5.33
2018-12-06T16:08:08.086Z,4.67
2018-12-06T16:10:35.497Z,2.90
2018-12-06T16:13:03.353Z,3.60
2018-12-06T16:15:30.805Z,4.57
2018-12-06T16:17:58.217Z,3.67
2018-12-06T16:20:25.716Z,4.20
2018-12-06T16:22:54.632Z,1.73
2018-12-06T16:25:22.308Z,2.17
2018-12-06T16:27:49.825Z,1.70
2018-12-06T16:30:17.374Z,1.93
2018-12-06T16:32:44.949Z,2.40
2018-12-06T16:35:12.452Z,2.00
2018-12-06T16:37:39.969Z,1.63
2018-12-06T16:40:07.587Z,2.77
2018-12-06T16:42:35.086Z,2.63
2018-12-06T16:45:02.540Z,2.70
2018-12-06T16:47:29.993Z,3.20
2018-12-06T16:49:57.453Z,3.40
2018-12-06T16:52:24.892Z,3.03
2018-12-06T16:54:52.292Z,2.80
2018-12-06T16:57:19.751Z,3.50
2018-12-06T16:59:47.181Z,3.23
2018-12-06T17:02:14.642Z,3.33
2018-12-06T17:04:42.421Z,4.60
2018-12-06T17:07:10.049Z,3.33
2018-12-06T17:09:37.462Z,3.83
2018-12-06T17:12:04.977Z,4.70
2018-12-06T17:14:32.432Z,3.60
2018-12-06T17:16:59.988Z,5.00
2018-12-06T17:19:27.535Z,5.60
2018-12-06T17:21:54.932Z,5.17
2018-12-06T17:24:22.384Z,5.13
2018-12-06T17:26:49.852Z,5.13
2018-12-06T17:29:17.273Z,4.97
2018-12-06T17:31:44.761Z,4.70
2018-12-06T17:34:12.191Z,5.00
2018-12-06T17:36:39.877Z,4.70
2018-12-06T17:39:07.330Z,4.87
2018-12-06T17:41:34.776Z,4.53
2018-12-06T17:44:02.659Z,4.53
2018-12-06T17:46:30.224Z,5.63
2018-12-06T17:48:57.678Z,5.83
2018-12-06T17:51:25.100Z,10.33
2018-12-06T17:53:54.194Z,8.97
2018-12-06T17:56:21.789Z,9.07
2018-12-06T17:58:49.212Z,7.00
2018-12-06T18:01:16.696Z,6.50
2018-12-06T18:03:44.112Z,5.03
2018-12-06T18:06:11.585Z,4.50
2018-12-06T18:08:39.072Z,2.70
2018-12-06T18:11:06.525Z,2.63
2018-12-06T18:13:34.188Z,2.40
2018-12-06T18:16:01.645Z,2.80
2018-12-06T18:18:29.101Z,2.60
2018-12-06T18:20:56.557Z,2.90
2018-12-06T18:23:24.022Z,3.10
2018-12-06T18:25:51.573Z,2.00
2018-12-06T18:28:19.133Z,2.10
2018-12-06T18:30:47.115Z,1.70
2018-12-06T18:33:14.751Z,1.43
2018-12-06T18:35:42.225Z,1.77
2018-12-06T18:38:09.655Z,2.00
2018-12-06T18:40:37.141Z,2.00
2018-12-06T18:43:04.593Z,1.63
2018-12-06T18:45:32.154Z,1.83
2018-12-06T18:47:59.607Z,2.43
2018-12-06T18:50:27.173Z,2.70
2018-12-06T18:52:54.730Z,2.30
2018-12-06T18:55:22.310Z,3.60
2018-12-06T18:57:50.051Z,2.87
2018-12-06T19:00:17.465Z,2.67
2018-12-06T19:02:44.950Z,2.87
2018-12-06T19:05:12.937Z,2.73
2018-12-06T19:07:40.388Z,2.90
2018-12-06T19:10:07.876Z,3.17
2018-12-06T19:12:35.304Z,3.03
2018-12-06T19:15:03.093Z,3.13
2018-12-06T19:17:30.587Z,2.87
2018-12-06T19:19:58.092Z,2.67
2018-12-06T19:22:25.645Z,2.40
2018-12-06T19:24:53.102Z,2.70
2018-12-06T19:27:20.666Z,2.43
2018-12-06T19:29:48.119Z,2.37
2018-12-06T19:32:15.554Z,2.50
2018-12-06T19:34:43.276Z,2.27
2018-12-06T19:37:10.774Z,2.33
2018-12-06T19:39:38.268Z,2.40
2018-12-06T19:42:05.704Z,2.30
2018-12-06T19:44:33.171Z,2.20
2018-12-06T19:47:00.597Z,2.40
2018-12-06T19:49:28.081Z,2.20
2018-12-06T19:51:55.535Z,2.00
2018-12-06T19:54:23.073Z,2.40
2018-12-06T19:56:50.501Z,3.13
2018-12-06T19:59:17.917Z,4.10
2018-12-06T20:01:45.332Z,2.87
2018-12-06T20:04:12.928Z,2.80
2018-12-06T20:06:40.381Z,2.63
2018-12-06T20:09:08.113Z,2.30
2018-12-06T20:11:35.605Z,2.07
2018-12-06T20:14:03.609Z,2.43
2018-12-06T20:16:31.131Z,2.27
2018-12-06T20:18:58.693Z,2.40
2018-12-06T20:21:26.154Z,2.17
2018-12-06T20:23:53.611Z,2.63
2018-12-06T20:26:21.161Z,2.60
2018-12-06T20:28:48.585Z,2.50
2018-12-06T20:31:16.012Z,2.20
2018-12-06T20:33:43.502Z,2.13
2018-12-06T20:36:10.945Z,2.33
2018-12-06T20:38:38.363Z,1.70
2018-12-06T20:41:05.793Z,1.70
2018-12-06T20:43:33.364Z,1.77
2018-12-06T20:46:00.820Z,1.93
2018-12-06T20:48:28.612Z,1.63
2018-12-06T20:50:56.136Z,1.30
2018-12-06T20:53:23.704Z,1.43
2018-12-06T20:55:51.157Z,1.97
2018-12-06T20:58:19.341Z,1.70
2018-12-06T21:00:46.780Z,1.57
2018-12-06T21:03:14.345Z,1.70
2018-12-06T21:05:41.905Z,1.57
2018-12-06T21:08:09.350Z,1.27
2018-12-06T21:10:36.856Z,1.73
2018-12-06T21:13:05.034Z,1.50
2018-12-06T21:15:32.656Z,1.83
2018-12-06T21:18:00.071Z,1.60
2018-12-06T21:20:27.616Z,1.50
2018-12-06T21:22:55.047Z,1.57
2018-12-06T21:25:23.101Z,1.50
2018-12-06T21:27:50.528Z,1.33
2018-12-06T21:30:18.112Z,1.20
2018-12-06T21:32:45.672Z,1.13
2018-12-06T21:35:13.137Z,1.43
2018-12-06T21:37:40.559Z,1.37
2018-12-06T21:40:08.093Z,1.70
2018-12-06T21:42:35.633Z,1.33
2018-12-06T21:45:03.364Z,1.20
2018-12-06T21:47:30.852Z,1.27
2018-12-06T21:49:58.290Z,1.13
2018-12-06T21:52:25.707Z,1.30
2018-12-06T21:54:53.411Z,1.10
2018-12-06T21:57:20.981Z,1.10
2018-12-06T21:59:48.402Z,1.30
2018-12-06T22:02:23.889Z,1.37
2018-12-06T22:04:51.350Z,1.37
2018-12-06T22:07:18.837Z,1.43
2018-12-06T22:09:46.644Z,1.37
2018-12-06T22:12:14.057Z,1.20
2018-12-06T22:14:41.553Z,1.20
2018-12-06T22:17:09.097Z,1.43
2018-12-06T22:19:36.585Z,1.40
2018-12-06T22:22:04.049Z,1.20
2018-12-06T22:24:31.542Z,1.20
2018-12-06T22:26:58.965Z,1.23
2018-12-06T22:29:26.709Z,1.17
2018-12-06T22:31:54.152Z,0.93
2018-12-06T22:34:21.663Z,1.20
2018-12-06T22:36:49.187Z,1.50
2018-12-06T22:39:16.655Z,1.17
2018-12-06T22:41:44.185Z,1.00
2018-12-06T22:44:11.617Z,1.10
2018-12-06T22:46:39.053Z,1.10
2018-12-06T22:49:06.545Z,1.10
2018-12-06T22:51:33.964Z,1.20
2018-12-06T22:54:01.376Z,1.03
2018-12-06T22:56:29.037Z,1.10
2018-12-06T22:58:56.453Z,1.00
2018-12-06T23:01:41.746Z,1.07
2018-12-06T23:04:09.161Z,0.67
2018-12-06T23:06:36.608Z,0.77
2018-12-06T23:09:06.624Z,0.77
2018-12-06T23:11:34.078Z,0.90
2018-12-06T23:14:01.535Z,0.70
2018-12-06T23:16:28.956Z,0.73
2018-12-06T23:18:56.426Z,0.40
2018-12-06T23:21:24.135Z,0.70
2018-12-06T23:23:51.620Z,0.97
2018-12-06T23:26:19.207Z,1.57
2018-12-06T23:28:47.125Z,1.27
2018-12-06T23:31:14.537Z,1.10
2018-12-06T23:33:42.030Z,1.10
2018-12-06T23:36:09.749Z,1.20
2018-12-06T23:38:37.204Z,0.80
2018-12-06T23:41:04.764Z,0.60
2018-12-06T23:43:32.249Z,0.50
2018-12-06T23:45:59.657Z,0.73
2018-12-06T23:48:27.545Z,0.50
2018-12-06T23:50:58.901Z,0.50
2018-12-06T23:53:26.349Z,0.40
2018-12-06T23:55:54.001Z,0.63
2018-12-06T23:58:21.416Z,0.87
